createdAt,value
2022-10-07T00:02:05.213Z,6.40
2022-10-07T00:04:34.156Z,6.30
2022-10-07T00:07:02.328Z,6.30
2022-10-07T00:09:30.744Z,6.30
2022-10-07T00:12:00.599Z,6.30
2022-10-07T00:14:28.724Z,6.30
2022-10-07T00:16:57.005Z,6.30
2022-10-07T00:19:25.586Z,6.20
2022-10-07T00:21:53.922Z,6.30
2022-10-07T00:24:22.096Z,6.20
2022-10-07T00:26:50.640Z,6.10
2022-10-07T00:29:20.228Z,6.10
2022-10-07T00:31:48.893Z,6.10
2022-10-07T00:34:19.109Z,6.10
2022-10-07T00:36:50.368Z,6.10
2022-10-07T00:39:19.583Z,6.10
2022-10-07T00:41:50.769Z,6.10
2022-10-07T00:44:41.508Z,6.10
2022-10-07T00:53:41.160Z,5.90
2022-10-07T00:56:10.609Z,5.90
2022-10-07T00:58:43.005Z,5.90
2022-10-07T01:01:12.758Z,5.90
2022-10-07T01:03:42.227Z,5.90
2022-10-07T01:06:13.842Z,5.90
2022-10-07T01:08:42.837Z,5.80
2022-10-07T01:11:20.092Z,5.80
2022-10-07T01:13:59.737Z,5.80
2022-10-07T01:16:37.400Z,5.80
2022-10-07T01:19:20.329Z,5.70
2022-10-07T01:22:02.513Z,5.60
2022-10-07T01:24:41.463Z,5.50
2022-10-07T01:27:15.709Z,5.40
2022-10-07T01:29:53.591Z,5.40
2022-10-07T01:32:26.980Z,5.50
2022-10-07T01:34:57.051Z,5.50
2022-10-07T01:37:28.604Z,5.40
2022-10-07T01:40:03.463Z,5.40
2022-10-07T01:42:33.590Z,5.30
2022-10-07T01:45:03.102Z,5.30
2022-10-07T01:47:31.290Z,5.30
2022-10-07T01:49:59.486Z,5.20
2022-10-07T01:52:45.003Z,5.30
2022-10-07T01:55:42.189Z,5.30
2022-10-07T01:58:23.707Z,5.30
2022-10-07T02:01:00.485Z,5.30
2022-10-07T02:03:53.221Z,5.20
2022-10-07T02:06:30.012Z,5.20
2022-10-07T02:09:01.993Z,5.20
2022-10-07T02:11:34.096Z,5.20
2022-10-07T02:14:12.486Z,5.10
2022-10-07T02:16:44.962Z,5.20
2022-10-07T02:19:17.663Z,5.20
2022-10-07T02:21:50.863Z,5.20
2022-10-07T02:24:21.597Z,5.20
2022-10-07T02:26:52.478Z,5.10
2022-10-07T02:29:25.102Z,5.10
2022-10-07T02:31:57.452Z,5.10
2022-10-07T02:34:28.742Z,5.10
2022-10-07T02:37:01.589Z,5.10
2022-10-07T02:39:30.245Z,5.10
2022-10-07T02:42:06.065Z,5.10
2022-10-07T02:44:42.372Z,5.00
2022-10-07T02:47:19.860Z,5.00
2022-10-07T02:49:53.240Z,5.00
2022-10-07T02:52:23.484Z,5.00
2022-10-07T02:54:59.172Z,5.00
2022-10-07T02:57:30.247Z,4.90
2022-10-07T03:00:11.461Z,4.90
2022-10-07T03:02:54.325Z,4.80
2022-10-07T03:05:28.896Z,4.60
2022-10-07T03:08:00.542Z,4.50
2022-10-07T03:10:28.995Z,4.60
2022-10-07T03:12:58.411Z,4.60
2022-10-07T03:15:29.259Z,4.50
2022-10-07T03:17:57.542Z,4.60
2022-10-07T03:20:25.730Z,4.60
2022-10-07T03:22:55.867Z,4.70
2022-10-07T03:25:24.545Z,4.70
2022-10-07T03:27:54.234Z,4.70
2022-10-07T03:30:24.619Z,4.70
2022-10-07T03:32:55.097Z,4.70
2022-10-07T03:35:26.643Z,4.60
2022-10-07T03:38:03.574Z,4.50
2022-10-07T03:40:34.873Z,4.40
2022-10-07T03:43:03.621Z,4.40
2022-10-07T03:45:33.268Z,4.50
2022-10-07T03:48:02.876Z,4.50
2022-10-07T03:50:31.283Z,4.50
2022-10-07T03:52:59.460Z,4.50
2022-10-07T03:55:27.918Z,4.50
2022-10-07T03:57:59.721Z,4.40
2022-10-07T04:00:29.363Z,4.40
2022-10-07T04:02:57.727Z,4.20
2022-10-07T04:05:29.283Z,4.30
2022-10-07T04:14:29.404Z,4.20
2022-10-07T04:17:03.902Z,4.10
2022-10-07T04:19:47.985Z,4.20
2022-10-07T04:22:19.057Z,4.20
2022-10-07T04:25:07.436Z,4.20
2022-10-07T04:27:51.249Z,4.20
2022-10-07T04:30:20.422Z,4.10
2022-10-07T04:32:52.848Z,4.00
2022-10-07T04:35:29.081Z,3.90
2022-10-07T04:38:28.095Z,3.90
2022-10-07T04:40:57.155Z,3.80
2022-10-07T04:43:27.449Z,3.90
2022-10-07T04:46:04.070Z,3.90
2022-10-07T04:48:34.399Z,4.00
2022-10-07T04:51:29.527Z,4.00
2022-10-07T04:54:05.361Z,4.00
2022-10-07T04:56:37.513Z,4.00
2022-10-07T04:59:06.301Z,3.90
2022-10-07T05:01:40.066Z,3.90
2022-10-07T05:04:26.568Z,3.90
2022-10-07T05:06:56.104Z,4.00
2022-10-07T05:09:29.854Z,3.70
2022-10-07T05:11:58.113Z,3.90
2022-10-07T05:14:50.130Z,3.80
2022-10-07T05:21:02.618Z,3.80
2022-10-07T05:24:03.493Z,3.60
2022-10-07T05:29:33.624Z,3.50
2022-10-07T05:32:04.968Z,3.50
2022-10-07T05:34:34.840Z,3.50
2022-10-07T05:37:03.131Z,3.50
2022-10-07T05:39:53.668Z,3.50
2022-10-07T05:42:29.034Z,3.50
2022-10-07T05:44:57.510Z,3.50
2022-10-07T05:47:25.883Z,3.50
2022-10-07T05:50:06.737Z,3.50
2022-10-07T05:52:40.591Z,3.70
2022-10-07T05:55:10.080Z,3.80
2022-10-07T06:01:13.937Z,3.90
2022-10-07T06:03:49.885Z,3.70
2022-10-07T06:06:18.552Z,3.90
2022-10-07T06:08:46.782Z,3.70
2022-10-07T06:14:56.356Z,3.60
2022-10-07T06:17:27.016Z,3.70
2022-10-07T06:19:55.311Z,3.70
2022-10-07T06:22:23.798Z,3.60
2022-10-07T06:25:03.299Z,3.60
2022-10-07T06:27:32.694Z,3.50
2022-10-07T06:30:07.645Z,3.70
2022-10-07T06:32:37.286Z,3.80
2022-10-07T06:35:11.298Z,3.90
2022-10-07T06:37:43.031Z,4.00
2022-10-07T06:40:13.068Z,4.10
2022-10-07T06:42:43.937Z,4.10
2022-10-07T06:45:15.209Z,4.10
2022-10-07T06:47:44.997Z,4.40
2022-10-07T06:57:43.773Z,4.60
2022-10-07T07:00:17.421Z,4.80
2022-10-07T07:03:16.162Z,4.90
2022-10-07T07:06:06.377Z,4.80
2022-10-07T07:08:41.740Z,5.00
2022-10-07T07:11:31.345Z,5.00
2022-10-07T07:14:14.228Z,7.10
2022-10-07T07:16:44.204Z,7.70
2022-10-07T07:19:19.548Z,9.60
2022-10-07T07:21:59.619Z,8.90
2022-10-07T07:24:29.597Z,9.60
2022-10-07T07:27:00.526Z,12.00
2022-10-07T07:29:47.143Z,12.90
2022-10-07T07:33:04.013Z,11.90
2022-10-07T07:35:45.880Z,12.80
2022-10-07T07:38:20.162Z,13.80
2022-10-07T07:41:03.873Z,14.00
2022-10-07T07:43:33.156Z,10.70
2022-10-07T07:46:02.127Z,9.20
2022-10-07T07:48:39.876Z,9.20
2022-10-07T07:54:28.524Z,15.50
2022-10-07T07:56:57.846Z,16.00
2022-10-07T07:59:27.020Z,16.30
2022-10-07T08:02:16.749Z,15.90
2022-10-07T08:04:45.403Z,16.70
2022-10-07T08:07:15.118Z,16.50
2022-10-07T08:09:44.042Z,17.20
2022-10-07T08:19:10.189Z,16.50
2022-10-07T08:21:53.833Z,16.90
2022-10-07T08:24:25.897Z,18.30
2022-10-07T08:26:56.519Z,16.80
2022-10-07T08:29:36.596Z,16.00
2022-10-07T08:32:05.043Z,16.50
2022-10-07T08:34:33.314Z,17.00
2022-10-07T08:37:10.819Z,18.80
2022-10-07T08:39:41.047Z,17.40
2022-10-07T08:42:15.375Z,18.20
2022-10-07T08:47:46.183Z,17.80
2022-10-07T08:50:19.826Z,17.30
2022-10-07T08:52:59.491Z,14.90
2022-10-07T08:55:51.390Z,13.20
2022-10-07T08:58:51.667Z,12.00
2022-10-07T09:01:44.335Z,11.30
2022-10-07T09:04:34.337Z,11.40
2022-10-07T09:07:07.653Z,11.30
2022-10-07T09:09:43.619Z,11.50
2022-10-07T09:12:26.131Z,11.70
2022-10-07T09:15:01.783Z,11.70
2022-10-07T09:17:42.370Z,11.60
2022-10-07T09:20:27.405Z,11.90
2022-10-07T09:23:01.224Z,12.00
2022-10-07T09:25:32.124Z,12.00
2022-10-07T09:33:59.550Z,12.50
2022-10-07T09:36:40.115Z,12.60
2022-10-07T09:39:24.677Z,12.80
2022-10-07T09:42:02.634Z,12.80
2022-10-07T09:44:34.221Z,12.90
2022-10-07T09:47:33.937Z,13.20
2022-10-07T09:53:26.223Z,13.30
2022-10-07T09:56:02.023Z,13.40
2022-10-07T09:58:32.394Z,13.60
2022-10-07T10:01:02.055Z,13.70
2022-10-07T10:03:32.516Z,13.80
2022-10-07T10:06:21.080Z,13.80
2022-10-07T10:09:46.243Z,13.90
2022-10-07T10:12:25.552Z,14.10
2022-10-07T10:14:57.130Z,14.30
2022-10-07T10:17:40.877Z,14.40
2022-10-07T10:20:36.854Z,14.60
2022-10-07T10:23:28.671Z,14.90
2022-10-07T10:26:32.457Z,15.00
2022-10-07T10:29:25.063Z,15.20
2022-10-07T10:32:40.360Z,15.40
2022-10-07T10:35:33.734Z,15.60
2022-10-07T10:38:48.253Z,15.80
2022-10-07T10:42:24.575Z,15.90
2022-10-07T10:49:01.966Z,16.10
2022-10-07T10:52:04.276Z,16.20
2022-10-07T10:55:00.161Z,16.20
2022-10-07T10:57:45.313Z,16.30
2022-10-07T11:00:21.442Z,16.50
2022-10-07T11:03:16.317Z,16.60
2022-10-07T11:06:16.588Z,16.90
2022-10-07T11:09:30.725Z,17.20
2022-10-07T11:12:17.804Z,17.00
2022-10-07T11:18:26.364Z,17.10
2022-10-07T11:24:20.552Z,17.60
2022-10-07T11:26:59.845Z,17.50
2022-10-07T11:29:38.061Z,17.60
2022-10-07T11:38:51.638Z,17.70
2022-10-07T11:45:52.314Z,17.80
2022-10-07T11:48:39.877Z,17.90
2022-10-07T11:57:34.172Z,17.90
2022-10-07T12:00:12.052Z,18.20
2022-10-07T12:02:45.395Z,18.10
2022-10-07T12:09:57.087Z,17.90
2022-10-07T12:12:52.805Z,18.10
2022-10-07T12:15:41.683Z,18.10
2022-10-07T12:26:25.961Z,18.30
2022-10-07T12:28:56.710Z,18.10
2022-10-07T12:32:31.418Z,18.30
2022-10-07T12:42:42.222Z,18.80
2022-10-07T12:45:18.365Z,18.50
2022-10-07T12:48:00.348Z,18.40
2022-10-07T12:51:00.913Z,18.40
2022-10-07T12:53:35.826Z,18.60
2022-10-07T12:56:05.118Z,18.70
2022-10-07T12:59:33.040Z,18.50
2022-10-07T13:02:37.086Z,18.50
2022-10-07T13:09:51.835Z,18.60
2022-10-07T13:16:24.434Z,18.70
2022-10-07T13:19:30.632Z,18.60
2022-10-07T13:22:18.741Z,18.40
2022-10-07T13:25:42.005Z,18.50
2022-10-07T13:28:25.908Z,18.50
2022-10-07T13:31:34.342Z,18.30
2022-10-07T13:34:27.165Z,18.40
2022-10-07T13:36:57.075Z,18.30
2022-10-07T13:39:26.501Z,18.10
2022-10-07T13:45:19.966Z,18.40
2022-10-07T13:48:10.434Z,18.30
2022-10-07T13:50:41.413Z,18.30
2022-10-07T13:54:04.303Z,18.40
2022-10-07T13:59:54.691Z,18.20
2022-10-07T14:02:26.626Z,18.30
2022-10-07T14:05:10.094Z,18.30
2022-10-07T14:14:07.946Z,18.10
2022-10-07T14:20:22.105Z,18.10
2022-10-07T14:24:11.599Z,18.00
2022-10-07T14:27:09.880Z,18.00
2022-10-07T14:29:40.299Z,18.00
2022-10-07T14:32:44.016Z,18.10
2022-10-07T14:35:22.481Z,17.90
2022-10-07T14:38:34.984Z,18.00
2022-10-07T14:42:00.581Z,17.90
2022-10-07T14:44:36.146Z,17.70
2022-10-07T14:47:07.690Z,17.80
2022-10-07T14:50:30.607Z,17.70
2022-10-07T14:52:59.106Z,17.70
2022-10-07T14:55:30.623Z,17.60
2022-10-07T14:58:01.873Z,17.70
2022-10-07T15:00:39.434Z,17.70
2022-10-07T15:06:26.848Z,17.70
2022-10-07T15:09:09.504Z,17.80
2022-10-07T15:11:53.647Z,17.80
2022-10-07T15:14:52.716Z,17.60
2022-10-07T15:18:05.525Z,17.50
2022-10-07T15:20:53.248Z,17.50
2022-10-07T15:23:21.779Z,17.40
2022-10-07T15:25:50.065Z,17.40
2022-10-07T15:28:25.142Z,17.40
2022-10-07T15:31:31.776Z,17.30
2022-10-07T15:34:09.628Z,17.10
2022-10-07T15:36:38.275Z,17.10
2022-10-07T15:39:09.371Z,17.10
2022-10-07T15:41:39.848Z,17.00
2022-10-07T15:44:17.774Z,17.00
2022-10-07T15:46:57.174Z,16.90
2022-10-07T15:49:37.941Z,16.80
2022-10-07T15:52:09.227Z,16.70
2022-10-07T15:54:41.028Z,16.60
2022-10-07T15:57:11.236Z,16.50
2022-10-07T15:59:42.636Z,16.40
2022-10-07T16:02:21.214Z,16.40
2022-10-07T16:04:51.522Z,16.30
2022-10-07T16:07:20.952Z,16.30
2022-10-07T16:09:55.347Z,16.20
2022-10-07T16:12:24.370Z,16.20
2022-10-07T16:21:50.485Z,16.00
2022-10-07T16:24:22.566Z,15.90
2022-10-07T16:26:53.110Z,15.80
2022-10-07T16:29:46.134Z,15.80
2022-10-07T16:32:27.034Z,15.70
2022-10-07T16:35:00.116Z,15.80
2022-10-07T16:41:00.937Z,15.70
2022-10-07T16:43:33.775Z,15.60
2022-10-07T16:46:08.251Z,15.40
2022-10-07T16:48:42.754Z,15.30
2022-10-07T16:51:14.745Z,15.20
2022-10-07T16:54:33.700Z,15.10
2022-10-07T16:57:19.450Z,15.10
2022-10-07T17:00:08.427Z,15.00
2022-10-07T17:02:41.483Z,15.00
2022-10-07T17:05:44.849Z,15.00
2022-10-07T17:11:28.716Z,14.90
2022-10-07T17:14:13.476Z,15.00
2022-10-07T17:17:38.766Z,14.90
2022-10-07T17:20:09.898Z,14.90
2022-10-07T17:22:49.141Z,14.80
2022-10-07T17:28:44.694Z,14.70
2022-10-07T17:31:18.755Z,14.70
2022-10-07T17:33:54.567Z,14.70
2022-10-07T17:36:24.144Z,14.60
2022-10-07T17:39:03.612Z,14.50
2022-10-07T17:44:39.181Z,14.30
2022-10-07T17:47:19.684Z,14.20
2022-10-07T17:50:08.010Z,14.10
2022-10-07T17:53:01.850Z,14.10
2022-10-07T17:55:33.844Z,14.00
2022-10-07T17:58:05.998Z,14.00
2022-10-07T18:00:45.613Z,13.90
2022-10-07T18:03:17.197Z,13.90
2022-10-07T18:05:58.775Z,13.80
2022-10-07T18:08:27.466Z,13.70
2022-10-07T18:17:22.447Z,13.60
2022-10-07T18:19:54.408Z,13.60
2022-10-07T18:22:26.867Z,13.50
2022-10-07T18:24:58.684Z,13.50
2022-10-07T18:27:33.980Z,13.50
2022-10-07T18:30:12.485Z,13.40
2022-10-07T18:32:51.643Z,13.50
2022-10-07T18:35:33.085Z,13.70
2022-10-07T18:38:31.328Z,13.80
2022-10-07T18:41:29.502Z,13.80
2022-10-07T18:43:59.763Z,13.80
2022-10-07T18:46:41.354Z,13.70
2022-10-07T18:49:13.828Z,13.80
2022-10-07T18:51:45.824Z,13.80
2022-10-07T18:54:14.472Z,13.70
2022-10-07T18:56:47.034Z,13.60
2022-10-07T18:59:15.466Z,13.60
2022-10-07T19:01:49.820Z,13.70
2022-10-07T19:04:29.335Z,13.60
2022-10-07T19:06:58.987Z,13.50
2022-10-07T19:09:28.704Z,13.40
2022-10-07T19:12:06.040Z,13.50
2022-10-07T19:14:46.227Z,13.40
2022-10-07T19:17:17.204Z,13.40
2022-10-07T19:19:51.738Z,13.30
2022-10-07T19:22:21.819Z,13.20
2022-10-07T19:25:15.962Z,13.20
2022-10-07T19:27:50.274Z,13.10
2022-10-07T19:30:18.883Z,13.00
2022-10-07T19:35:33.691Z,13.00
2022-10-07T19:38:07.222Z,12.90
2022-10-07T19:55:18.665Z,12.80
2022-10-07T20:00:52.697Z,12.70
2022-10-07T20:03:30.050Z,12.70
2022-10-07T20:06:11.879Z,12.60
2022-10-07T20:08:44.536Z,12.50
2022-10-07T20:14:24.786Z,12.50
2022-10-07T20:16:55.675Z,12.40
2022-10-07T20:19:26.216Z,12.40
2022-10-07T20:21:54.691Z,12.30
2022-10-07T20:24:26.610Z,12.30
2022-10-07T20:26:54.901Z,12.20
2022-10-07T20:29:30.408Z,12.20
2022-10-07T20:32:04.464Z,12.20
2022-10-07T20:46:27.108Z,11.90
2022-10-07T20:48:57.844Z,11.80
2022-10-07T20:51:27.191Z,11.80
2022-10-07T20:53:55.530Z,11.80
2022-10-07T20:56:28.103Z,11.80
2022-10-07T20:59:02.532Z,11.80
2022-10-07T21:01:33.909Z,11.80
2022-10-07T21:04:06.635Z,11.80
2022-10-07T21:06:35.633Z,11.80
2022-10-07T21:09:04.489Z,11.90
2022-10-07T21:11:34.449Z,11.90
2022-10-07T21:14:04.623Z,11.90
2022-10-07T21:16:37.768Z,11.90
2022-10-07T21:19:11.369Z,11.90
2022-10-07T21:21:40.201Z,11.90
2022-10-07T21:24:09.004Z,11.90
2022-10-07T21:26:39.586Z,11.80
2022-10-07T21:29:08.256Z,11.80
2022-10-07T21:31:38.023Z,11.80
2022-10-07T21:34:07.948Z,11.70
2022-10-07T21:36:38.477Z,11.70
2022-10-07T21:39:07.789Z,11.80
2022-10-07T21:41:38.883Z,11.80
2022-10-07T21:44:12.141Z,11.70
2022-10-07T21:46:50.058Z,11.60
2022-10-07T21:49:18.622Z,11.60
2022-10-07T21:51:47.289Z,11.60
2022-10-07T21:54:30.334Z,11.60
2022-10-07T21:57:00.286Z,11.60
2022-10-07T21:59:33.097Z,11.50
2022-10-07T22:02:01.392Z,11.50
2022-10-07T22:04:30.856Z,11.50
2022-10-07T22:07:20.242Z,11.50
2022-10-07T22:09:48.457Z,11.50
2022-10-07T22:12:47.589Z,11.50
2022-10-07T22:15:17.073Z,11.50
2022-10-07T22:17:45.670Z,11.50
2022-10-07T22:20:13.866Z,11.50
2022-10-07T22:26:14.815Z,11.40
2022-10-07T22:29:04.807Z,11.50
2022-10-07T22:31:37.153Z,11.40
2022-10-07T22:34:06.058Z,11.40
2022-10-07T22:36:36.815Z,11.40
2022-10-07T22:39:09.804Z,11.40
2022-10-07T22:41:38.051Z,11.40
2022-10-07T22:44:07.861Z,11.50
2022-10-07T22:46:36.590Z,11.50
2022-10-07T22:49:04.864Z,11.50
2022-10-07T22:51:33.099Z,11.50
2022-10-07T22:54:01.988Z,11.50
2022-10-07T22:56:30.224Z,11.50
2022-10-07T22:58:59.996Z,11.50
2022-10-07T23:01:31.848Z,11.50
2022-10-07T23:04:03.477Z,11.40
2022-10-07T23:06:33.640Z,11.40
2022-10-07T23:09:02.588Z,11.30
2022-10-07T23:11:31.704Z,11.30
2022-10-07T23:14:00.184Z,11.40
2022-10-07T23:16:34.042Z,11.30
2022-10-07T23:19:02.911Z,11.30
2022-10-07T23:21:38.257Z,11.20
2022-10-07T23:24:11.957Z,11.10
2022-10-07T23:26:40.379Z,11.10
2022-10-07T23:29:09.088Z,11.10
2022-10-07T23:31:45.965Z,11.00
2022-10-07T23:34:14.996Z,11.00
2022-10-07T23:36:43.238Z,11.00
2022-10-07T23:39:11.868Z,11.00
2022-10-07T23:41:41.417Z,11.00
2022-10-07T23:44:09.657Z,11.00
2022-10-07T23:46:39.860Z,11.00
2022-10-07T23:49:08.129Z,11.00
2022-10-07T23:51:36.414Z,10.90
2022-10-07T23:54:06.502Z,10.90
2022-10-07T23:56:34.832Z,10.90
2022-10-07T23:59:03.908Z,10.90
